Time;durP1;ratioP1;P1;durP2;ratioP2;P2;SDS_P1;SDS_P2;PMS_P1;PMS_P2;Temp;Humidity;BMP_temperature;BMP_pressure;BME280_temperature;BME280_humidity;BME280_pressure;Samples;Min_cycle;Max_cycle;Signal;HPM_P1;HPM_P2
2022/11/03 00:02:01;;;;;;;11.05;2.00;;;13.30;99.90;;;;;;5099287;28;20473;-70
2022/11/03 00:04:27;;;;;;;9.27;1.63;;;13.30;99.90;;;;;;5098554;28;20048;-68
2022/11/03 00:06:54;;;;;;;8.88;1.90;;;13.40;99.90;;;;;;5099198;28;20048;-70
2022/11/03 00:09:21;;;;;;;11.55;1.95;;;13.40;99.90;;;;;;5064695;28;20051;-70
2022/11/03 00:11:52;;;;;;;8.73;1.67;;;13.40;99.90;;;;;;5098309;28;20038;-73
2022/11/03 00:14:18;;;;;;;12.60;2.38;;;13.40;99.90;;;;;;5082129;28;20298;-73
2022/11/03 00:16:45;;;;;;;11.55;1.80;;;13.40;99.90;;;;;;5081360;28;20024;-70
2022/11/03 00:19:13;;;;;;;12.13;1.98;;;13.40;99.90;;;;;;5098133;28;20046;-70
2022/11/03 00:21:39;;;;;;;7.90;1.58;;;13.40;99.90;;;;;;5098273;28;20107;-69
2022/11/03 00:24:06;;;;;;;14.35;1.95;;;13.40;99.90;;;;;;5098221;28;20132;-69
2022/11/03 00:26:33;;;;;;;9.73;2.08;;;13.40;99.90;;;;;;5098925;28;20032;-70
2022/11/03 00:29:01;;;;;;;4.32;1.30;;;13.40;99.90;;;;;;5098092;28;20039;-69
2022/11/03 00:31:32;;;;;;;10.52;1.90;;;13.30;99.90;;;;;;5098707;28;20036;-70
2022/11/03 00:34:00;;;;;;;10.05;2.05;;;13.30;99.90;;;;;;5098668;28;20016;-70
2022/11/03 00:36:28;;;;;;;7.50;1.70;;;13.30;99.90;;;;;;5098643;28;20027;-70
2022/11/03 00:38:54;;;;;;;10.93;2.47;;;13.30;99.90;;;;;;5098551;28;20391;-70
2022/11/03 00:41:21;;;;;;;11.55;1.83;;;13.30;99.90;;;;;;5097975;28;20047;-69
2022/11/03 00:43:48;;;;;;;8.07;1.80;;;13.30;99.90;;;;;;5098409;28;20039;-69
2022/11/03 00:46:14;;;;;;;13.32;1.88;;;13.30;99.90;;;;;;5097730;28;20288;-70
2022/11/03 00:48:41;;;;;;;7.38;1.65;;;13.30;99.90;;;;;;5097604;28;20024;-71
2022/11/03 00:51:11;;;;;;;6.07;1.73;;;13.30;99.90;;;;;;5098248;28;20024;-71
2022/11/03 00:53:39;;;;;;;8.80;2.00;;;13.30;99.90;;;;;;5097826;28;20028;-70
2022/11/03 00:56:08;;;;;;;8.95;1.73;;;13.30;99.90;;;;;;5098306;28;20042;-69
2022/11/03 00:58:34;;;;;;;9.05;1.90;;;13.30;99.90;;;;;;5097914;28;20097;-71
2022/11/03 01:01:09;;;;;;;13.65;2.40;;;13.20;99.90;;;;;;5080556;28;20032;-69
2022/11/03 01:03:37;;;;;;;13.50;1.80;;;13.30;99.90;;;;;;5098091;28;20032;-68
2022/11/03 01:08:53;;;;;;;12.30;2.00;;;13.20;99.90;;;;;;5097138;28;20028;-70
2022/11/03 01:14:09;;;;;;;14.20;2.38;;;13.20;99.90;;;;;;5098459;28;20035;-71
2022/11/03 01:16:35;;;;;;;12.63;2.38;;;13.20;99.90;;;;;;5097906;28;20028;-70
2022/11/03 01:19:01;;;;;;;9.20;1.80;;;13.20;99.90;;;;;;5097393;28;20028;-70
2022/11/03 01:21:27;;;;;;;9.52;1.90;;;13.10;99.90;;;;;;5096482;28;20346;-70
2022/11/03 01:23:53;;;;;;;6.53;1.70;;;13.10;99.90;;;;;;5097740;28;20031;-71
2022/11/03 01:26:19;;;;;;;12.48;2.22;;;13.10;99.90;;;;;;5063846;28;20383;-70
2022/11/03 01:28:46;;;;;;;11.82;2.30;;;13.10;99.90;;;;;;5097570;28;20032;-70
2022/11/03 01:31:23;;;;;;;9.82;1.80;;;13.10;99.90;;;;;;5080069;28;20089;-73
2022/11/03 01:33:50;;;;;;;12.13;2.28;;;13.10;99.90;;;;;;5063408;28;20035;-71
2022/11/03 01:36:17;;;;;;;8.38;1.85;;;13.10;99.90;;;;;;5097473;28;20032;-71
2022/11/03 01:38:43;;;;;;;12.18;2.13;;;13.10;99.90;;;;;;5097510;28;20127;-73
2022/11/03 01:41:13;;;;;;;10.77;2.20;;;13.10;99.90;;;;;;5096706;28;20127;-70
2022/11/03 01:43:40;;;;;;;10.38;1.98;;;13.20;99.90;;;;;;5079796;28;20111;-69
2022/11/03 01:46:16;;;;;;;11.15;1.80;;;13.10;99.90;;;;;;5079692;28;20028;-69
2022/11/03 01:48:47;;;;;;;7.00;1.60;;;13.20;99.90;;;;;;5097323;28;20403;-72
2022/11/03 01:51:16;;;;;;;8.93;1.80;;;13.10;99.90;;;;;;5096649;28;20059;-72
2022/11/03 01:53:45;;;;;;;13.40;2.33;;;13.10;99.90;;;;;;5079573;28;20027;-72
2022/11/03 01:56:13;;;;;;;12.40;2.17;;;13.10;99.90;;;;;;5079415;28;20035;-72
2022/11/03 01:58:41;;;;;;;10.90;1.90;;;13.10;99.90;;;;;;5097059;28;20055;-74
2022/11/03 02:01:07;;;;;;;10.98;1.90;;;13.10;99.90;;;;;;5097175;28;20383;-73
2022/11/03 02:03:39;;;;;;;9.85;2.15;;;13.10;99.90;;;;;;5096485;28;20142;-71
2022/11/03 02:06:06;;;;;;;10.93;1.80;;;13.10;99.90;;;;;;5096393;28;20383;-71
2022/11/03 02:08:44;;;;;;;8.93;1.70;;;13.10;99.90;;;;;;5096152;28;20043;-72
2022/11/03 02:13:59;;;;;;;6.57;1.88;;;13.20;99.90;;;;;;5097139;28;20447;-71
2022/11/03 02:16:27;;;;;;;8.55;2.35;;;13.10;99.90;;;;;;5096724;28;20035;-70
2022/11/03 02:18:54;;;;;;;8.20;2.00;;;13.10;99.90;;;;;;5096992;28;20032;-71
2022/11/03 02:21:28;;;;;;;8.80;2.22;;;13.10;99.90;;;;;;5079499;28;20400;-69
2022/11/03 02:24:03;;;;;;;9.10;1.88;;;13.10;99.90;;;;;;5096589;28;20036;-70
2022/11/03 02:26:29;;;;;;;11.68;1.90;;;13.10;99.90;;;;;;5097421;28;20110;-71
2022/11/03 02:28:55;;;;;;;10.80;2.00;;;13.10;99.90;;;;;;5096176;28;20059;-73
2022/11/03 02:31:41;;;;;;;6.65;1.80;;;13.10;99.90;;;;;;5096273;28;20024;-73
2022/11/03 02:34:41;;;;;;;8.65;1.95;;;13.10;99.90;;;;;;5098894;28;20089;-72
2022/11/03 02:37:16;;;;;;;9.43;1.92;;;13.10;99.90;;;;;;5083306;28;20120;-71
2022/11/03 02:40:07;;;;;;;10.23;2.13;;;13.10;99.90;;;;;;5100889;28;20035;-69
2022/11/03 02:42:35;;;;;;;9.23;1.98;;;13.10;99.90;;;;;;5100928;28;20507;-70
2022/11/03 02:45:05;;;;;;;9.18;1.60;;;13.10;99.90;;;;;;5083231;28;20067;-70
2022/11/03 02:47:31;;;;;;;10.00;1.83;;;13.10;99.90;;;;;;5101100;28;20050;-70
2022/11/03 02:49:57;;;;;;;10.93;1.80;;;13.10;99.90;;;;;;5101282;28;20127;-70
2022/11/03 02:52:41;;;;;;;13.88;2.22;;;13.10;99.90;;;;;;5100419;28;20169;-70
2022/11/03 02:55:28;;;;;;;7.20;1.70;;;13.10;99.90;;;;;;5100523;28;20039;-69
2022/11/03 02:58:07;;;;;;;10.38;2.55;;;13.10;99.90;;;;;;5100968;28;20428;-71
2022/11/03 03:00:44;;;;;;;7.75;1.30;;;13.00;99.90;;;;;;5100613;28;20039;-72
2022/11/03 03:03:16;;;;;;;10.95;2.53;;;13.10;99.90;;;;;;5099902;28;20068;-73
2022/11/03 03:05:45;;;;;;;9.98;2.05;;;13.10;99.90;;;;;;5099636;28;20458;-72
2022/11/03 03:08:13;;;;;;;9.65;1.95;;;13.10;99.90;;;;;;5100421;28;20143;-71
2022/11/03 03:10:42;;;;;;;13.25;1.70;;;13.10;99.90;;;;;;5082675;28;20028;-71
2022/11/03 03:13:12;;;;;;;8.90;1.88;;;13.10;99.90;;;;;;5100461;28;20028;-73
2022/11/03 03:15:55;;;;;;;7.47;1.40;;;13.10;99.90;;;;;;5083006;28;20016;-71
2022/11/03 03:18:39;;;;;;;10.70;1.95;;;13.10;99.90;;;;;;5100162;28;20272;-70
2022/11/03 03:21:24;;;;;;;6.05;1.40;;;13.10;99.90;;;;;;5099272;28;20043;-71
2022/11/03 03:24:14;;;;;;;10.15;2.10;;;13.20;99.90;;;;;;5100122;28;20115;-70
2022/11/03 03:26:44;;;;;;;11.52;2.08;;;13.20;99.90;;;;;;5099544;28;20043;-71
2022/11/03 03:29:17;;;;;;;8.55;2.00;;;13.20;99.90;;;;;;5100378;28;20021;-71
2022/11/03 03:31:50;;;;;;;11.13;1.92;;;13.20;99.90;;;;;;5100018;28;20032;-72
2022/11/03 03:34:18;;;;;;;11.63;1.77;;;13.20;99.90;;;;;;5099256;28;20036;-72
2022/11/03 03:36:47;;;;;;;9.40;1.95;;;13.20;99.90;;;;;;5082491;28;20325;-74
2022/11/03 03:39:15;;;;;;;8.65;2.08;;;13.20;99.90;;;;;;5099181;28;20085;-72
2022/11/03 03:41:44;;;;;;;5.78;1.70;;;13.30;99.90;;;;;;5099056;28;20170;-72
2022/11/03 03:44:11;;;;;;;8.32;1.77;;;13.30;99.90;;;;;;5082135;28;20299;-73
2022/11/03 03:47:00;;;;;;;9.75;1.98;;;13.30;99.90;;;;;;5098233;28;20437;-72
2022/11/03 03:49:27;;;;;;;9.70;1.83;;;13.20;99.90;;;;;;5099512;28;20040;-75
2022/11/03 03:51:52;;;;;;;7.75;1.70;;;13.20;99.90;;;;;;5098842;28;20287;-74
2022/11/03 03:54:18;;;;;;;10.60;2.05;;;13.30;99.90;;;;;;5098836;28;20028;-73
2022/11/03 03:56:58;;;;;;;9.73;1.92;;;13.30;99.90;;;;;;5099700;28;20435;-73
2022/11/03 03:59:24;;;;;;;8.60;1.65;;;13.30;99.90;;;;;;5099369;28;20105;-73
2022/11/03 04:01:50;;;;;;;12.07;1.92;;;13.30;99.90;;;;;;5098577;28;20403;-73
2022/11/03 04:04:16;;;;;;;8.88;2.05;;;13.30;99.90;;;;;;5099255;28;20115;-71
2022/11/03 04:06:42;;;;;;;8.90;1.80;;;13.30;99.90;;;;;;5098426;28;20032;-72
2022/11/03 04:09:08;;;;;;;6.57;1.92;;;13.30;99.90;;;;;;5099158;28;20038;-72
2022/11/03 04:22:33;;;;;;;9.57;1.95;;;13.30;99.90;;;;;;5099265;28;20142;-72
2022/11/03 04:24:59;;;;;;;9.48;1.90;;;13.30;99.90;;;;;;5098360;28;20384;-72
2022/11/03 04:27:34;;;;;;;9.15;1.75;;;13.30;99.90;;;;;;5099406;28;20099;-72
2022/11/03 04:30:20;;;;;;;6.43;1.75;;;13.30;99.90;;;;;;5098835;28;20421;-72
2022/11/03 04:32:47;;;;;;;8.20;1.90;;;13.40;99.90;;;;;;5098569;28;20047;-70
2022/11/03 04:35:26;;;;;;;7.30;1.90;;;13.40;99.90;;;;;;5098985;28;20430;-72
2022/11/03 04:38:16;;;;;;;9.35;2.05;;;13.40;99.90;;;;;;5081215;28;20493;-72
2022/11/03 04:40:47;;;;;;;8.05;1.92;;;13.40;99.90;;;;;;5099189;28;20293;-70
2022/11/03 04:43:14;;;;;;;8.38;1.75;;;13.30;99.90;;;;;;5098574;28;20028;-72
2022/11/03 04:45:43;;;;;;;9.38;1.88;;;13.30;99.90;;;;;;5080871;28;20043;-72
2022/11/03 04:48:12;;;;;;;7.47;1.75;;;13.30;99.90;;;;;;5098507;28;20123;-73
2022/11/03 04:50:39;;;;;;;7.30;1.85;;;13.20;99.90;;;;;;5080646;28;20362;-72
2022/11/03 04:53:12;;;;;;;7.07;1.70;;;13.20;99.90;;;;;;5097633;28;20043;-72
2022/11/03 04:55:41;;;;;;;8.63;2.10;;;13.20;99.90;;;;;;5098306;28;20028;-71
2022/11/03 04:58:31;;;;;;;8.48;1.95;;;13.10;99.90;;;;;;5080372;28;20422;-72
2022/11/03 05:00:59;;;;;;;8.55;1.50;;;13.10;99.90;;;;;;5098465;28;20039;-72
2022/11/03 05:03:31;;;;;;;11.27;2.25;;;13.10;99.90;;;;;;5097559;28;20032;-72
2022/11/03 05:05:57;;;;;;;9.55;1.90;;;13.00;99.90;;;;;;5097379;28;20032;-72
2022/11/03 05:08:24;;;;;;;9.23;1.75;;;13.00;99.90;;;;;;5098037;28;20040;-73
2022/11/03 05:10:50;;;;;;;7.97;1.50;;;13.00;99.90;;;;;;5097486;28;20035;-70
2022/11/03 05:13:27;;;;;;;7.85;2.00;;;13.00;99.90;;;;;;5097218;28;20354;-71
2022/11/03 05:16:01;;;;;;;6.95;1.92;;;13.00;99.90;;;;;;5097218;28;20093;-71
2022/11/03 05:18:41;;;;;;;14.05;2.30;;;13.00;99.90;;;;;;5097905;28;20024;-71
2022/11/03 05:21:09;;;;;;;9.95;2.53;;;13.00;99.90;;;;;;5097118;28;20115;-71
2022/11/03 05:23:46;;;;;;;4.78;1.65;;;13.10;99.90;;;;;;5097098;28;20024;-70
2022/11/03 05:26:33;;;;;;;5.75;1.42;;;13.00;99.90;;;;;;5097016;28;20028;-70
2022/11/03 05:29:19;;;;;;;7.03;1.90;;;13.00;99.90;;;;;;5097498;28;20032;-71
2022/11/03 05:31:47;;;;;;;8.35;2.05;;;13.00;99.90;;;;;;5097508;28;20035;-71
2022/11/03 05:34:36;;;;;;;9.85;1.83;;;13.00;99.90;;;;;;5097023;28;20031;-71
2022/11/03 05:37:04;;;;;;;12.25;2.00;;;13.00;99.90;;;;;;5096975;28;20089;-71
2022/11/03 05:39:33;;;;;;;6.97;1.73;;;12.90;99.90;;;;;;5097552;28;20369;-71
2022/11/03 05:42:00;;;;;;;9.23;2.10;;;12.90;99.90;;;;;;5097351;28;20023;-72
2022/11/03 05:44:38;;;;;;;7.07;1.83;;;12.90;99.90;;;;;;5096802;28;20028;-71
2022/11/03 05:47:23;;;;;;;9.00;1.90;;;12.90;99.90;;;;;;5080088;28;20052;-70
2022/11/03 05:49:51;;;;;;;6.90;1.75;;;12.90;99.90;;;;;;5097230;28;20032;-70
2022/11/03 05:52:21;;;;;;;13.30;2.22;;;12.90;99.90;;;;;;5096582;28;20042;-70
2022/11/03 05:54:48;;;;;;;7.80;1.90;;;12.90;99.90;;;;;;5096748;28;20058;-69
2022/11/03 05:57:15;;;;;;;15.60;2.33;;;13.00;99.90;;;;;;5079760;28;20044;-70
2022/11/03 05:59:43;;;;;;;10.95;1.83;;;12.90;99.90;;;;;;5097467;28;20063;-71
2022/11/03 06:02:23;;;;;;;7.60;1.95;;;13.00;99.90;;;;;;5096572;28;20065;-71
2022/11/03 06:04:49;;;;;;;9.23;2.22;;;12.90;99.90;;;;;;5079686;28;20319;-70
2022/11/03 06:07:24;;;;;;;6.95;1.98;;;12.90;99.90;;;;;;5079479;28;20074;-69
2022/11/03 06:09:52;;;;;;;11.85;2.20;;;13.00;99.90;;;;;;5097066;28;20403;-71
2022/11/03 06:12:21;;;;;;;8.43;2.33;;;13.00;99.90;;;;;;5096385;28;20024;-71
2022/11/03 06:14:47;;;;;;;6.50;1.90;;;13.10;99.90;;;;;;5097186;28;20016;-71
2022/11/03 06:17:22;;;;;;;11.82;2.40;;;13.00;99.90;;;;;;5096390;28;20397;-68
2022/11/03 06:19:52;;;;;;;10.25;1.95;;;13.00;99.90;;;;;;5097243;28;20157;-70
2022/11/03 06:22:25;;;;;;;8.77;1.77;;;13.00;99.90;;;;;;5096077;28;20426;-70
2022/11/03 06:24:58;;;;;;;9.82;2.00;;;13.10;99.90;;;;;;5097544;28;20288;-71
2022/11/03 06:27:27;;;;;;;7.28;1.60;;;13.10;99.90;;;;;;5097031;28;20109;-70
2022/11/03 06:29:58;;;;;;;8.15;1.90;;;13.10;99.90;;;;;;5096271;28;20272;-70
2022/11/03 06:32:24;;;;;;;9.75;2.10;;;13.10;99.90;;;;;;5096269;28;20028;-70
2022/11/03 06:34:54;;;;;;;11.40;2.38;;;13.20;99.90;;;;;;5096402;28;20020;-71
2022/11/03 06:37:24;;;;;;;10.52;2.22;;;13.20;99.90;;;;;;5096348;28;20318;-70
2022/11/03 06:39:57;;;;;;;14.13;2.30;;;13.10;99.90;;;;;;5096938;28;20284;-71
2022/11/03 06:42:23;;;;;;;11.95;2.00;;;13.10;99.90;;;;;;5079493;28;20036;-70
2022/11/03 06:44:50;;;;;;;11.60;2.50;;;13.10;99.90;;;;;;5096190;28;20124;-72
2022/11/03 06:47:25;;;;;;;9.80;1.90;;;13.10;99.90;;;;;;5096084;28;20028;-71
2022/11/03 06:50:00;;;;;;;9.68;2.15;;;13.10;99.90;;;;;;5096779;28;20089;-71
2022/11/03 06:52:30;;;;;;;13.35;2.30;;;13.20;99.90;;;;;;5095896;28;20040;-72
2022/11/03 06:55:08;;;;;;;8.70;2.10;;;13.10;99.90;;;;;;5097476;28;20333;-70
2022/11/03 06:57:38;;;;;;;11.05;1.83;;;13.10;99.90;;;;;;5095921;28;20419;-69
2022/11/03 07:00:25;;;;;;;10.25;2.35;;;13.10;99.90;;;;;;5095879;28;20036;-69
2022/11/03 07:03:15;;;;;;;7.45;2.13;;;13.20;99.90;;;;;;5095848;28;20039;-70
2022/11/03 07:05:43;;;;;;;10.38;2.30;;;13.20;99.90;;;;;;5096492;28;20062;-69
2022/11/03 07:08:28;;;;;;;8.90;2.50;;;13.20;99.90;;;;;;5095954;28;20025;-70
2022/11/03 07:11:09;;;;;;;11.80;2.40;;;13.20;99.90;;;;;;5079108;28;20395;-72
2022/11/03 07:13:36;;;;;;;15.05;2.88;;;13.10;99.90;;;;;;5095721;28;20036;-68
2022/11/03 07:16:02;;;;;;;9.43;2.60;;;13.10;99.90;;;;;;5078870;28;20020;-69
2022/11/03 07:18:43;;;;;;;10.32;2.38;;;13.10;99.90;;;;;;5096298;28;20445;-69
2022/11/03 07:21:36;;;;;;;9.07;2.40;;;13.10;99.90;;;;;;5099543;28;20032;-69
2022/11/03 07:24:18;;;;;;;11.82;2.80;;;13.20;99.90;;;;;;5100352;28;20043;-69
2022/11/03 07:26:44;;;;;;;10.03;2.40;;;13.10;99.90;;;;;;5099639;28;20036;-71
2022/11/03 07:29:20;;;;;;;9.20;2.25;;;13.10;99.90;;;;;;5099458;28;20296;-70
2022/11/03 07:31:46;;;;;;;14.23;2.85;;;13.10;99.90;;;;;;5099580;28;20115;-72
2022/11/03 07:34:20;;;;;;;14.55;2.85;;;13.10;99.90;;;;;;5082803;28;20157;-71
2022/11/03 07:36:46;;;;;;;10.98;2.63;;;13.10;99.90;;;;;;5100834;28;20394;-70
2022/11/03 07:39:17;;;;;;;12.45;2.72;;;13.20;99.90;;;;;;5100229;28;20123;-69
2022/11/03 07:41:43;;;;;;;12.75;2.28;;;13.20;99.90;;;;;;5099053;28;20417;-68
2022/11/03 07:44:16;;;;;;;12.23;2.45;;;13.20;99.90;;;;;;5100144;28;20391;-69
2022/11/03 07:46:42;;;;;;;11.27;2.05;;;13.20;99.90;;;;;;5082496;28;20354;-70
2022/11/03 07:49:20;;;;;;;11.75;2.28;;;13.20;99.90;;;;;;5099865;28;20032;-70
2022/11/03 07:51:46;;;;;;;13.18;2.97;;;13.20;99.90;;;;;;5099629;28;20115;-71
2022/11/03 07:54:19;;;;;;;12.48;2.53;;;13.30;99.90;;;;;;5099629;28;20032;-70
2022/11/03 07:57:00;;;;;;;12.77;3.08;;;13.40;99.90;;;;;;5099369;28;20036;-70
2022/11/03 07:59:37;;;;;;;10.77;2.47;;;13.40;99.90;;;;;;5098944;28;20039;-70
2022/11/03 08:02:30;;;;;;;7.97;2.35;;;13.50;99.90;;;;;;5098950;28;20024;-70
2022/11/03 08:04:57;;;;;;;10.02;2.08;;;13.60;99.90;;;;;;5099474;28;20136;-70
2022/11/03 08:07:26;;;;;;;12.32;2.63;;;13.60;99.90;;;;;;5099248;28;20085;-70
2022/11/03 08:10:13;;;;;;;11.75;2.22;;;13.50;99.90;;;;;;5099748;28;20119;-70
2022/11/03 08:12:38;;;;;;;9.77;1.90;;;13.50;99.90;;;;;;5099516;28;20110;-70
2022/11/03 08:15:05;;;;;;;9.40;2.20;;;13.60;99.90;;;;;;5099205;28;20315;-70
2022/11/03 08:17:31;;;;;;;10.48;2.40;;;13.70;99.90;;;;;;5098780;28;20387;-68
2022/11/03 08:19:57;;;;;;;10.57;2.03;;;13.70;99.90;;;;;;5099543;28;20059;-70
2022/11/03 08:22:24;;;;;;;9.25;2.30;;;13.70;99.90;;;;;;5100574;28;20122;-70
2022/11/03 08:24:51;;;;;;;9.23;2.17;;;13.60;99.90;;;;;;5099423;28;20028;-70
2022/11/03 08:27:18;;;;;;;6.18;1.80;;;13.60;99.90;;;;;;5064896;28;20036;-66
2022/11/03 08:29:44;;;;;;;7.65;1.98;;;13.50;99.90;;;;;;5099456;28;20051;-67
2022/11/03 08:32:09;;;;;;;10.48;2.33;;;13.40;99.90;;;;;;5098698;28;20024;-70
2022/11/03 08:34:35;;;;;;;13.23;2.17;;;13.50;99.90;;;;;;5098649;28;20024;-70
2022/11/03 08:37:01;;;;;;;9.02;2.10;;;13.50;99.90;;;;;;5098362;28;20043;-70
2022/11/03 08:39:27;;;;;;;9.93;2.10;;;13.40;99.90;;;;;;5099259;28;20093;-70
2022/11/03 08:41:52;;;;;;;8.00;2.03;;;13.40;99.90;;;;;;5081327;28;20151;-68
2022/11/03 08:44:18;;;;;;;7.68;1.55;;;13.60;99.90;;;;;;5081099;28;20119;-70
2022/11/03 08:46:44;;;;;;;6.40;1.90;;;13.40;99.90;;;;;;5097809;28;20148;-72
2022/11/03 08:49:10;;;;;;;8.07;2.22;;;13.50;99.90;;;;;;5098370;28;20035;-70
2022/11/03 08:51:35;;;;;;;5.85;1.77;;;13.50;99.90;;;;;;5097827;28;20052;-70
2022/11/03 08:54:01;;;;;;;8.63;1.98;;;13.60;99.90;;;;;;5097630;28;20438;-70
2022/11/03 08:56:27;;;;;;;7.53;1.95;;;13.50;99.90;;;;;;5098410;28;20028;-70
2022/11/03 08:58:53;;;;;;;6.05;1.50;;;13.50;99.90;;;;;;5097320;28;20056;-70
2022/11/03 09:01:18;;;;;;;7.53;1.80;;;13.50;99.90;;;;;;5098220;28;20032;-70
2022/11/03 09:03:44;;;;;;;10.85;2.00;;;13.40;99.90;;;;;;5098260;28;20036;-70
2022/11/03 09:06:10;;;;;;;7.43;1.85;;;13.40;99.90;;;;;;5097454;28;20411;-70
2022/11/03 09:08:36;;;;;;;8.00;2.00;;;13.40;99.90;;;;;;5097239;28;20032;-70
2022/11/03 09:11:02;;;;;;;5.32;1.70;;;13.40;99.90;;;;;;5098257;28;20114;-69
2022/11/03 09:13:27;;;;;;;9.20;2.20;;;13.40;99.90;;;;;;5080166;28;20103;-70
2022/11/03 09:15:53;;;;;;;6.82;1.73;;;13.40;99.90;;;;;;5097936;28;20032;-71
2022/11/03 09:18:19;;;;;;;11.13;1.90;;;13.50;99.90;;;;;;5080198;28;20126;-69
2022/11/03 09:20:44;;;;;;;9.27;2.38;;;13.50;99.90;;;;;;5097684;28;20024;-70
2022/11/03 09:23:10;;;;;;;6.63;1.95;;;13.40;99.90;;;;;;5097739;28;20043;-70
2022/11/03 09:25:37;;;;;;;8.20;1.70;;;13.40;99.90;;;;;;5080082;28;20410;-68
2022/11/03 09:28:03;;;;;;;8.50;1.77;;;13.50;99.90;;;;;;5096719;28;20059;-69
2022/11/03 09:30:29;;;;;;;8.00;1.95;;;13.40;99.90;;;;;;5097378;28;20070;-68
2022/11/03 09:32:54;;;;;;;6.95;1.92;;;13.50;99.90;;;;;;5097194;28;20077;-69
2022/11/03 09:35:20;;;;;;;8.20;1.92;;;13.40;99.90;;;;;;5097605;28;20021;-68
2022/11/03 09:37:46;;;;;;;6.07;1.63;;;13.40;99.90;;;;;;5097652;28;20035;-68
2022/11/03 09:40:14;;;;;;;6.72;1.77;;;13.40;99.90;;;;;;5096754;28;20411;-69
2022/11/03 09:42:41;;;;;;;9.13;2.00;;;13.40;99.90;;;;;;5096141;28;20040;-69
2022/11/03 09:45:08;;;;;;;7.85;1.60;;;13.50;99.90;;;;;;5097476;28;20040;-68
2022/11/03 09:47:40;;;;;;;6.38;1.80;;;13.60;99.90;;;;;;5096467;28;20016;-69
2022/11/03 09:50:13;;;;;;;15.70;2.57;;;13.80;99.90;;;;;;5097136;28;20043;-68
2022/11/03 09:52:38;;;;;;;;;;;13.80;99.90;;;;;;5097703;28;20031;-69
2022/11/03 09:55:14;;;;;;;6.90;1.90;;;13.80;99.90;;;;;;5097340;28;20226;-69
2022/11/03 09:57:40;;;;;;;7.22;2.38;;;13.90;99.90;;;;;;5079387;28;20040;-69
2022/11/03 10:00:28;;;;;;;8.13;2.00;;;14.00;99.90;;;;;;5096465;28;20028;-69
2022/11/03 10:02:54;;;;;;;9.60;2.00;;;13.90;99.90;;;;;;5095895;28;20043;-69
2022/11/03 10:05:24;;;;;;;8.05;3.00;;;14.10;99.90;;;;;;5097214;28;20414;-69
2022/11/03 10:07:53;;;;;;;7.45;2.10;;;14.20;99.90;;;;;;5096143;28;20035;-69
2022/11/03 10:10:20;;;;;;;7.93;2.03;;;14.40;99.90;;;;;;5096976;28;20012;-71
2022/11/03 10:12:48;;;;;;;11.50;1.70;;;14.50;99.90;;;;;;5096272;28;20115;-70
2022/11/03 10:15:22;;;;;;;6.35;1.65;;;14.30;99.90;;;;;;5097138;28;20035;-70
2022/11/03 10:17:49;;;;;;;7.50;1.77;;;14.20;99.90;;;;;;5095991;28;20052;-68
2022/11/03 10:20:18;;;;;;;5.45;1.63;;;14.30;99.90;;;;;;5095971;28;20085;-68
2022/11/03 10:22:46;;;;;;;6.65;1.85;;;14.30;99.90;;;;;;5096679;28;20040;-67
2022/11/03 10:25:35;;;;;;;6.18;1.95;;;14.30;99.90;;;;;;5095862;28;20101;-67
2022/11/03 10:28:16;;;;;;;5.90;1.73;;;14.50;99.90;;;;;;5096961;28;20036;-68
2022/11/03 10:31:07;;;;;;;6.82;1.90;;;14.60;99.90;;;;;;5096321;28;20031;-69
2022/11/03 10:33:34;;;;;;;6.97;1.73;;;14.60;99.90;;;;;;5096187;28;20024;-68
2022/11/03 10:36:20;;;;;;;5.88;1.77;;;14.80;99.90;;;;;;5097043;28;20027;-68
2022/11/03 10:38:46;;;;;;;6.15;1.83;;;14.70;99.90;;;;;;5096179;28;20047;-69
2022/11/03 10:41:24;;;;;;;4.05;1.70;;;14.80;99.90;;;;;;5079572;28;20152;-69
2022/11/03 10:44:15;;;;;;;5.90;1.50;;;14.90;99.90;;;;;;5096212;28;20039;-70
2022/11/03 10:47:01;;;;;;;8.52;2.00;;;14.80;99.90;;;;;;5097004;28;20035;-69
2022/11/03 10:49:29;;;;;;;6.35;1.75;;;14.80;99.90;;;;;;5096122;28;20269;-70
2022/11/03 10:52:18;;;;;;;5.65;1.55;;;14.90;99.90;;;;;;5096220;28;20167;-69
2022/11/03 10:54:45;;;;;;;5.63;1.85;;;15.10;99.90;;;;;;5098187;28;20028;-69
2022/11/03 10:57:11;;;;;;;6.00;1.58;;;15.20;99.90;;;;;;5066469;28;20097;-69
2022/11/03 10:59:38;;;;;;;7.15;1.90;;;15.10;99.90;;;;;;5099960;28;20085;-70
2022/11/03 11:02:19;;;;;;;4.22;1.40;;;15.10;99.90;;;;;;5100858;28;20027;-67
2022/11/03 11:04:50;;;;;;;5.32;1.80;;;15.30;99.90;;;;;;5099966;28;20339;-68
2022/11/03 11:07:46;;;;;;;6.57;1.73;;;15.40;99.90;;;;;;5082961;28;20055;-68
2022/11/03 11:10:17;;;;;;;5.03;1.55;;;15.70;99.90;;;;;;5096130;28;20406;-66
2022/11/03 11:13:11;;;;;;;8.45;1.48;;;15.50;99.90;;;;;;5100405;28;20240;-66
2022/11/03 11:15:48;;;;;;;6.93;1.45;;;15.50;99.90;;;;;;5082608;28;20036;-68
2022/11/03 11:18:26;;;;;;;6.15;1.60;;;15.70;99.90;;;;;;5099896;28;20032;-68
2022/11/03 11:20:52;;;;;;;3.20;1.30;;;15.80;99.90;;;;;;5082711;28;20345;-68
2022/11/03 11:23:27;;;;;;;3.60;1.23;;;16.20;99.90;;;;;;5099370;28;20035;-68
2022/11/03 11:26:08;;;;;;;5.80;1.30;;;16.20;99.90;;;;;;5100185;28;20028;-67
2022/11/03 11:28:46;;;;;;;6.47;1.65;;;16.10;99.90;;;;;;5100032;28;20031;-67
2022/11/03 11:31:29;;;;;;;4.50;1.77;;;16.20;99.90;;;;;;5100207;28;20028;-67
2022/11/03 11:34:20;;;;;;;4.60;1.35;;;16.50;99.90;;;;;;5099994;28;20291;-67
2022/11/03 11:37:09;;;;;;;5.10;1.25;;;16.30;99.90;;;;;;5099543;28;20020;-69
2022/11/03 11:39:40;;;;;;;6.05;1.38;;;16.10;99.90;;;;;;5082194;28;20070;-67
2022/11/03 11:42:18;;;;;;;3.25;1.45;;;16.20;99.90;;;;;;5082168;28;20044;-70
2022/11/03 11:44:45;;;;;;;4.55;1.30;;;16.20;99.90;;;;;;5099738;28;20111;-68
2022/11/03 11:47:34;;;;;;;4.55;1.50;;;16.10;99.90;;;;;;5099711;28;20051;-69
2022/11/03 11:50:12;;;;;;;4.95;1.20;;;16.00;99.90;;;;;;5099749;28;20123;-68
2022/11/03 11:52:47;;;;;;;5.65;1.35;;;15.80;99.90;;;;;;5099933;28;20032;-68
2022/11/03 11:55:33;;;;;;;3.97;1.25;;;15.90;99.90;;;;;;5099115;28;20047;-69
2022/11/03 11:58:00;;;;;;;3.75;1.17;;;16.10;99.90;;;;;;5098337;28;20148;-68
2022/11/03 12:00:30;;;;;;;3.97;1.30;;;16.00;99.90;;;;;;5082127;28;20020;-68
2022/11/03 12:02:58;;;;;;;3.53;1.10;;;16.10;99.90;;;;;;5099723;28;20387;-70
2022/11/03 12:05:27;;;;;;;5.60;1.30;;;16.20;99.90;;;;;;5064928;28;20036;-68
2022/11/03 12:07:54;;;;;;;4.00;1.20;;;16.30;99.90;;;;;;5099152;28;20020;-68
2022/11/03 12:10:24;;;;;;;4.78;1.10;;;16.20;99.90;;;;;;5098822;28;20044;-73
2022/11/03 12:12:51;;;;;;;3.63;1.40;;;16.20;99.90;;;;;;5099598;28;20129;-70
2022/11/03 12:15:54;;;;;;;4.88;1.40;;;16.40;99.90;;;;;;5099506;28;20043;-69
2022/11/03 12:18:34;;;;;;;5.07;1.30;;;16.30;99.90;;;;;;5099418;28;20039;-68
2022/11/03 12:21:02;;;;;;;2.58;1.13;;;16.20;99.90;;;;;;5098454;28;20108;-69
2022/11/03 12:23:36;;;;;;;2.78;1.00;;;16.00;99.90;;;;;;5099668;28;20039;-69
2022/11/03 12:26:05;;;;;;;3.92;1.50;;;16.10;99.90;;;;;;5100305;28;20039;-69
2022/11/03 12:28:33;;;;;;;5.85;1.23;;;16.10;99.90;;;;;;5098397;28;20047;-69
2022/11/03 12:30:59;;;;;;;6.30;1.30;;;16.20;99.90;;;;;;5081837;28;20403;-68
2022/11/03 12:33:26;;;;;;;3.45;0.98;;;16.30;99.90;;;;;;5098591;28;20111;-70
2022/11/03 12:35:52;;;;;;;2.80;1.10;;;16.40;99.90;;;;;;5082119;28;20093;-70
2022/11/03 12:38:18;;;;;;;4.10;1.40;;;16.40;99.90;;;;;;5081543;28;20028;-70
2022/11/03 12:40:44;;;;;;;2.65;1.10;;;16.40;99.90;;;;;;5099298;28;20089;-69
2022/11/03 12:43:10;;;;;;;4.78;1.00;;;16.40;99.90;;;;;;5098323;28;20377;-69
2022/11/03 12:45:35;;;;;;;4.53;1.10;;;16.50;99.90;;;;;;5097657;28;20024;-69
2022/11/03 12:48:01;;;;;;;2.90;1.27;;;16.50;99.90;;;;;;5081079;28;20036;-68
2022/11/03 12:50:27;;;;;;;5.75;1.40;;;16.50;99.90;;;;;;5064307;28;20397;-70
2022/11/03 12:52:53;;;;;;;2.25;1.10;;;16.60;99.90;;;;;;5097787;28;20071;-68
2022/11/03 12:55:19;;;;;;;5.95;1.10;;;16.70;99.90;;;;;;5097605;28;20185;-68
2022/11/03 12:57:45;;;;;;;6.18;1.48;;;16.70;99.90;;;;;;5080861;28;20419;-68
2022/11/03 13:00:11;;;;;;;4.95;1.35;;;16.40;99.90;;;;;;5097509;28;20039;-68
2022/11/03 13:02:38;;;;;;;2.70;1.10;;;16.30;99.90;;;;;;5098472;28;20028;-71
2022/11/03 13:05:05;;;;;;;4.65;1.40;;;16.20;99.90;;;;;;5080598;28;20115;-69
2022/11/03 13:07:31;;;;;;;1.77;1.10;;;16.10;99.90;;;;;;5097940;28;20036;-69
2022/11/03 13:09:56;;;;;;;3.97;1.30;;;16.10;99.90;;;;;;5097255;28;20276;-68
2022/11/03 13:12:31;;;;;;;6.22;1.33;;;16.10;99.90;;;;;;5063979;28;20101;-69
2022/11/03 13:15:03;;;;;;;6.85;1.92;;;16.00;99.90;;;;;;5080475;28;20028;-70
2022/11/03 13:17:29;;;;;;;5.63;1.33;;;15.90;99.90;;;;;;5096255;28;20078;-68
2022/11/03 13:19:54;;;;;;;2.53;1.20;;;15.80;99.90;;;;;;5097023;28;20372;-68
2022/11/03 13:22:21;;;;;;;4.43;1.30;;;15.80;99.90;;;;;;5080194;28;20036;-72
2022/11/03 13:24:46;;;;;;;3.47;1.33;;;15.80;99.90;;;;;;5097748;28;20084;-69